Time;durP1;ratioP1;P1;durP2;ratioP2;P2;SDS_P1;SDS_P2;PMS_P1;PMS_P2;Temp;Humidity;BMP_temperature;BMP_pressure;BME280_temperature;BME280_humidity;BME280_pressure;Samples;Min_cycle;Max_cycle;Signal;HPM_P1;HPM_P2
2021/10/25 00:01:35;;;;;;;1.87;1.50;;;;;;;3.11;67.45;99572.28;5091442;28;42664;-77
2021/10/25 00:04:03;;;;;;;2.30;2.00;;;;;;;3.09;67.38;99574.06;5123685;27;43141;-77
2021/10/25 00:06:30;;;;;;;3.30;2.37;;;;;;;3.06;68.17;99573.28;5089376;28;39242;-77
2021/10/25 00:08:58;;;;;;;2.83;1.67;;;;;;;3.04;67.87;99575.94;5084810;28;40882;-77
2021/10/25 00:11:25;;;;;;;2.73;1.93;;;;;;;2.94;68.03;99553.47;5090032;28;43033;-77
2021/10/25 00:13:53;;;;;;;4.03;2.97;;;;;;;3.00;69.08;99568.16;5090004;28;42257;-77
2021/10/25 00:16:20;;;;;;;4.27;3.13;;;;;;;2.85;68.79;99544.03;5089851;28;40336;-77
2021/10/25 00:18:49;;;;;;;5.37;2.07;;;;;;;2.95;68.31;99570.03;5082684;28;41504;-76
2021/10/25 00:21:17;;;;;;;4.43;2.80;;;;;;;2.88;68.12;99566.66;5110680;28;42704;-77
2021/10/25 00:23:44;;;;;;;2.57;2.03;;;;;;;2.84;67.86;99572.88;5108517;27;42964;-77
2021/10/25 00:26:12;;;;;;;2.10;1.60;;;;;;;2.84;68.30;99567.63;5109466;28;40980;-77
2021/10/25 00:28:40;;;;;;;3.13;2.40;;;;;;;2.83;67.99;99571.13;5091469;28;41264;-78
2021/10/25 00:31:09;;;;;;;3.20;2.53;;;;;;;2.81;68.53;99567.69;5109603;28;41787;-77
2021/10/25 00:33:36;;;;;;;2.77;2.03;;;;;;;2.79;68.39;99559.88;5093147;28;42174;-77
2021/10/25 00:36:06;;;;;;;3.77;2.60;;;;;;;2.77;68.52;99560.78;5109863;28;39639;-77
2021/10/25 00:38:34;;;;;;;3.50;3.20;;;;;;;2.76;68.34;99564.28;5091115;28;40350;-77
2021/10/25 00:41:02;;;;;;;4.37;2.50;;;;;;;2.71;68.11;99559.16;5108675;28;43618;-76
2021/10/25 00:43:30;;;;;;;3.23;2.00;;;;;;;2.68;68.09;99555.75;5092006;28;41226;-77
2021/10/25 00:45:58;;;;;;;3.40;2.67;;;;;;;2.65;67.83;99566.25;5109223;28;39909;-77
2021/10/25 00:48:25;;;;;;;3.73;1.90;;;;;;;2.58;67.82;99548.97;5091443;28;40072;-77
2021/10/25 00:50:53;;;;;;;3.50;2.30;;;;;;;2.60;67.64;99552.44;5093075;28;42529;-77
2021/10/25 00:53:22;;;;;;;2.93;1.77;;;;;;;2.55;68.07;99544.66;5108374;28;41185;-77
2021/10/25 00:55:51;;;;;;;2.43;2.23;;;;;;;2.53;68.29;99547.28;5108937;28;39632;-77
2021/10/25 00:58:19;;;;;;;4.73;2.63;;;;;;;2.51;67.87;99556.91;5108716;28;42487;-77
2021/10/25 01:00:46;;;;;;;2.33;2.13;;;;;;;2.50;67.95;99560.41;5109755;28;42950;-77
2021/10/25 01:03:14;;;;;;;4.10;2.60;;;;;;;2.46;67.83;99561.38;5091671;28;41374;-77
2021/10/25 01:05:42;;;;;;;2.27;2.03;;;;;;;2.43;67.79;99553.59;5109898;28;39131;-76
2021/10/25 01:08:10;;;;;;;2.43;1.77;;;;;;;2.41;67.69;99555.38;5091599;28;40969;-77
2021/10/25 01:10:41;;;;;;;1.57;1.30;;;;;;;2.38;67.71;99552.81;5092103;28;42634;-76
2021/10/25 01:13:10;;;;;;;1.43;1.33;;;;;;;2.37;68.82;99548.47;5091640;28;41292;-77
2021/10/25 01:15:38;;;;;;;2.53;1.90;;;;;;;2.36;68.83;99538.03;5091692;28;40186;-76
2021/10/25 01:18:06;;;;;;;5.03;2.00;;;;;;;2.32;68.92;99536.38;5091922;28;42195;-77
2021/10/25 01:20:35;;;;;;;3.53;2.37;;;;;;;2.34;69.71;99538.09;5091754;28;41671;-77
2021/10/25 01:23:04;;;;;;;2.20;1.80;;;;;;;2.34;69.70;99537.22;5108991;28;43113;-77
2021/10/25 01:25:32;;;;;;;3.13;2.27;;;;;;;2.33;70.06;99538.97;5091886;28;38702;-76
2021/10/25 01:28:03;;;;;;;2.57;2.20;;;;;;;2.31;70.20;99525.06;5108383;28;41597;-77
2021/10/25 01:30:31;;;;;;;4.27;2.70;;;;;;;2.32;69.66;99526.78;5107584;28;42656;-76
2021/10/25 01:32:58;;;;;;;1.90;1.80;;;;;;;2.29;69.61;99526.84;5091280;28;41458;-77
2021/10/25 01:35:27;;;;;;;3.30;2.47;;;;;;;2.23;69.46;99521.72;5111653;28;40832;-77
2021/10/25 01:37:57;;;;;;;2.23;1.83;;;;;;;2.26;69.40;99531.25;5111736;28;42821;-77
2021/10/25 01:40:25;;;;;;;2.33;1.93;;;;;;;2.22;70.03;99520.03;5145639;27;44878;-77
2021/10/25 01:42:52;;;;;;;3.77;1.93;;;;;;;2.16;69.73;99526.19;5112028;28;42087;-77
2021/10/25 01:45:20;;;;;;;3.07;1.87;;;;;;;2.21;69.63;99536.59;5094088;28;39869;-76
2021/10/25 01:47:47;;;;;;;2.87;2.40;;;;;;;2.10;69.35;99525.47;5096080;28;40688;-76
2021/10/25 01:50:16;;;;;;;1.90;1.80;;;;;;;2.12;69.35;99528.88;5134509;27;43002;-78
2021/10/25 01:52:43;;;;;;;1.87;1.63;;;;;;;2.12;69.14;99539.34;5090705;28;42980;-76
2021/10/25 01:55:12;;;;;;;3.00;2.70;;;;;;;2.09;69.21;99539.41;5073983;28;39050;-77
2021/10/25 01:57:40;;;;;;;3.90;2.50;;;;;;;2.00;69.24;99526.50;5092191;28;41793;-77
2021/10/25 02:00:09;;;;;;;3.90;2.30;;;;;;;2.00;70.14;99516.03;5143930;27;42922;-77
2021/10/25 02:02:45;;;;;;;2.30;1.80;;;;;;;2.04;69.77;99530.78;5112489;28;41051;-76
2021/10/25 02:05:34;;;;;;;2.93;2.47;;;;;;;2.02;69.47;99538.66;5113406;28;39667;-76
2021/10/25 02:08:01;;;;;;;2.23;1.57;;;;;;;2.00;69.44;99532.56;5146075;27;41762;-76
2021/10/25 02:10:38;;;;;;;5.70;2.60;;;;;;;1.99;69.69;99527.38;5111651;28;42732;-77
2021/10/25 02:13:10;;;;;;;3.07;2.07;;;;;;;1.97;69.54;99534.41;5111258;28;42032;-76
2021/10/25 02:15:38;;;;;;;3.63;2.63;;;;;;;1.94;69.45;99524.00;5112030;28;40848;-77
2021/10/25 02:18:07;;;;;;;5.07;2.40;;;;;;;1.92;69.53;99524.03;5094358;28;41757;-79
2021/10/25 02:20:35;;;;;;;3.30;1.90;;;;;;;1.91;69.39;99527.53;5093698;28;42269;-76
2021/10/25 02:23:03;;;;;;;4.17;2.80;;;;;;;1.90;69.39;99532.75;5094851;28;42012;-77
2021/10/25 02:25:34;;;;;;;2.27;2.03;;;;;;;1.87;69.40;99533.66;5111662;28;38980;-76
2021/10/25 02:28:04;;;;;;;2.03;1.70;;;;;;;1.85;69.05;99526.78;5094194;28;40687;-76
2021/10/25 02:30:33;;;;;;;2.77;2.23;;;;;;;1.79;69.29;99525.97;5094209;28;41838;-76
2021/10/25 02:33:04;;;;;;;1.83;1.57;;;;;;;1.79;69.00;99525.97;5094703;28;41025;-77
2021/10/25 02:35:32;;;;;;;1.57;1.47;;;;;;;1.75;69.04;99526.91;5095033;28;39939;-77
2021/10/25 02:37:59;;;;;;;1.70;1.60;;;;;;;1.67;68.93;99515.72;5093726;28;40987;-78
2021/10/25 02:40:31;;;;;;;6.20;2.20;;;;;;;1.70;69.10;99522.66;5111095;28;42591;-77
2021/10/25 02:43:00;;;;;;;3.33;2.00;;;;;;;1.51;68.98;99498.59;5094089;28;42129;-77
2021/10/25 02:45:30;;;;;;;3.53;1.97;;;;;;;1.63;68.80;99534.06;5093960;28;40085;-77
2021/10/25 02:47:58;;;;;;;3.57;1.87;;;;;;;1.59;69.09;99520.22;5132946;27;42744;-77
2021/10/25 02:50:26;;;;;;;2.53;2.27;;;;;;;1.57;69.14;99518.53;5090325;28;42672;-77
2021/10/25 02:52:55;;;;;;;2.90;1.93;;;;;;;1.55;69.16;99526.38;5073672;28;41682;-77
2021/10/25 02:55:25;;;;;;;4.53;2.20;;;;;;;1.51;68.91;99527.28;5125557;27;40646;-77
2021/10/25 02:57:58;;;;;;;1.77;1.60;;;;;;;1.49;69.00;99526.44;5128227;27;41855;-77
2021/10/25 03:00:26;;;;;;;3.17;1.97;;;;;;;1.35;68.98;99512.78;5093659;28;41674;-77
2021/10/25 03:02:55;;;;;;;2.40;2.20;;;;;;;1.44;68.87;99523.06;5094387;28;41120;-77
2021/10/25 03:05:23;;;;;;;3.03;1.77;;;;;;;1.42;68.72;99524.81;5110983;28;40104;-77
2021/10/25 03:07:50;;;;;;;3.03;2.30;;;;;;;1.38;68.91;99515.31;5109737;28;42903;-76
2021/10/25 03:10:18;;;;;;;2.00;1.33;;;;;;;1.33;68.82;99514.53;5110274;28;43726;-77
2021/10/25 03:12:46;;;;;;;3.00;2.00;;;;;;;1.34;68.77;99517.13;5109773;28;42206;-77
2021/10/25 03:15:16;;;;;;;2.80;2.10;;;;;;;1.31;68.90;99508.47;5109813;28;40110;-78
2021/10/25 03:17:44;;;;;;;2.00;1.90;;;;;;;1.30;68.78;99514.56;5111165;28;41571;-77
2021/10/25 03:20:26;;;;;;;1.53;1.43;;;;;;;1.21;68.86;99502.53;5093448;28;42889;-77
2021/10/25 03:22:53;;;;;;;3.37;2.43;;;;;;;1.28;68.75;99518.94;5093830;28;41601;-77
2021/10/25 03:25:23;;;;;;;2.53;1.77;;;;;;;1.25;68.88;99521.59;5109565;28;40037;-77
2021/10/25 03:27:51;;;;;;;4.60;2.13;;;;;;;1.23;68.88;99533.81;5110356;28;41710;-78
2021/10/25 03:30:19;;;;;;;1.60;1.50;;;;;;;1.19;68.97;99526.91;5110215;28;43667;-77
2021/10/25 03:32:50;;;;;;;2.57;2.03;;;;;;;1.19;69.22;99517.34;5110164;28;41203;-77
2021/10/25 03:35:48;;;;;;;2.93;1.90;;;;;;;1.20;68.92;99523.41;5081047;28;39838;-78
2021/10/25 03:38:18;;;;;;;2.07;1.50;;;;;;;1.15;69.23;99509.56;5106757;28;41798;-77
2021/10/25 03:40:48;;;;;;;3.10;2.50;;;;;;;1.03;69.22;99492.34;5071823;28;41975;-78
2021/10/25 03:43:16;;;;;;;2.20;1.90;;;;;;;1.18;69.03;99527.78;5106074;28;41073;-77
2021/10/25 03:45:46;;;;;;;1.53;1.23;;;;;;;1.15;69.05;99526.09;5103237;28;40029;-77
2021/10/25 03:48:20;;;;;;;4.93;2.50;;;;;;;1.16;69.22;99527.81;5093068;28;41630;-77
2021/10/25 03:50:51;;;;;;;2.67;2.20;;;;;;;1.17;69.13;99523.47;5093322;28;41430;-76
2021/10/25 03:53:33;;;;;;;2.43;2.00;;;;;;;1.18;68.91;99518.22;5109163;28;42204;-76
2021/10/25 03:56:06;;;;;;;2.63;2.10;;;;;;;1.22;69.02;99519.06;5093231;28;39634;-79
2021/10/25 04:01:34;;;;;;;2.67;2.47;;;;;;;1.27;70.35;99514.59;5092160;28;41906;-77
2021/10/25 04:04:25;;;;;;;2.13;2.03;;;;;;;1.29;70.57;99518.06;5093071;28;41406;-77
2021/10/25 04:27:15;;;;;;;3.07;2.13;;;;;;;1.39;71.01;99514.44;5092965;28;41005;-77
2021/10/25 04:29:45;;;;;;;2.90;1.90;;;;;;;1.42;70.74;99511.78;5092719;28;40381;-77
2021/10/25 04:32:13;;;;;;;2.83;2.03;;;;;;;1.41;70.68;99513.53;5108952;28;41471;-77
2021/10/25 04:34:41;;;;;;;3.43;2.33;;;;;;;1.46;70.70;99516.09;5091161;28;41732;-76
2021/10/25 04:37:29;;;;;;;1.83;1.73;;;;;;;1.49;70.82;99513.41;5109025;28;41147;-76
2021/10/25 04:40:11;;;;;;;2.90;2.33;;;;;;;1.36;70.93;99485.78;5092383;28;38806;-77
2021/10/25 04:42:40;;;;;;;2.33;2.03;;;;;;;1.50;70.69;99512.50;5113507;28;41700;-77
2021/10/25 04:45:08;;;;;;;3.00;2.40;;;;;;;1.50;70.85;99512.50;5096568;28;42473;-77
2021/10/25 04:47:40;;;;;;;2.87;2.53;;;;;;;1.46;70.61;99508.25;5113984;28;43372;-76
2021/10/25 04:50:21;;;;;;;1.73;1.63;;;;;;;1.46;70.69;99510.00;5095545;28;38608;-76
2021/10/25 04:53:07;;;;;;;1.77;1.67;;;;;;;1.43;70.92;99518.72;5095428;28;40193;-77
2021/10/25 04:55:36;;;;;;;2.27;2.00;;;;;;;1.43;70.80;99521.34;5108615;28;43026;-76
2021/10/25 04:58:04;;;;;;;2.73;1.93;;;;;;;1.43;70.57;99510.91;5108527;28;43049;-76
2021/10/25 05:00:31;;;;;;;2.07;1.83;;;;;;;1.41;70.56;99507.44;5109191;28;40221;-77
2021/10/25 05:03:00;;;;;;;2.27;2.00;;;;;;;1.43;70.93;99511.75;5092171;28;41621;-77
2021/10/25 05:05:28;;;;;;;2.03;1.93;;;;;;;1.43;70.61;99506.53;5092286;28;41641;-76
2021/10/25 05:07:55;;;;;;;3.70;2.90;;;;;;;1.44;70.85;99502.19;5109007;27;42174;-76
2021/10/25 08:05:57;;;;;;;4.83;3.77;;;;;;;3.00;90.15;99518.44;5163464;27;40728;-79
2021/10/25 08:11:11;;;;;;;7.87;4.33;;;;;;;4.04;82.78;99532.59;5128013;27;42060;-76
2021/10/25 08:13:50;;;;;;;3.20;2.93;;;;;;;4.32;80.26;99517.88;5138561;27;40755;-81
2021/10/25 08:16:31;;;;;;;4.63;3.40;;;;;;;4.69;78.82;99521.22;5146858;27;40012;-80
2021/10/25 08:19:12;;;;;;;4.67;3.20;;;;;;;5.13;77.21;99529.56;5144423;27;40729;-78
2021/10/25 08:21:39;;;;;;;3.30;3.00;;;;;;;5.42;75.65;99533.94;5162010;27;42629;-83
2021/10/25 08:24:07;;;;;;;4.27;2.53;;;;;;;5.67;75.24;99534.91;5148810;27;41059;-82
2021/10/25 08:27:04;;;;;;;5.47;4.17;;;;;;;6.09;73.84;99521.28;5168282;27;39986;-79
2021/10/25 08:29:33;;;;;;;4.73;3.80;;;;;;;6.37;72.78;99542.25;5165312;27;42055;-82
2021/10/25 08:32:10;;;;;;;4.53;3.00;;;;;;;6.47;71.65;99548.91;5160918;27;42531;-78
2021/10/25 08:34:53;;;;;;;5.80;3.30;;;;;;;6.66;71.43;99550.00;5145419;27;42205;-80
2021/10/25 08:40:42;;;;;;;5.40;3.93;;;;;;;7.22;69.84;99544.41;5162166;27;41807;-83
2021/10/25 08:43:12;;;;;;;5.47;3.83;;;;;;;7.51;69.01;99546.78;5147756;27;43189;-81
2021/10/25 08:45:45;;;;;;;5.13;4.03;;;;;;;7.91;67.96;99529.38;5162006;27;42835;-81
2021/10/25 08:48:13;;;;;;;5.20;3.67;;;;;;;8.74;66.82;99548.72;5167002;27;40410;-79
2021/10/25 08:50:42;;;;;;;7.03;4.00;;;;;;;9.45;64.42;99536.66;5161987;27;41684;-75
2021/10/25 08:53:12;;;;;;;6.17;3.60;;;;;;;9.87;62.05;99546.13;5144402;27;42864;-80
2021/10/25 08:55:50;;;;;;;7.17;3.50;;;;;;;9.68;61.61;99552.28;5145754;27;41956;-78
2021/10/25 08:58:19;;;;;;;3.90;3.50;;;;;;;9.56;61.88;99538.78;5147321;27;39134;-78
2021/10/25 09:00:50;;;;;;;4.70;3.47;;;;;;;10.03;61.60;99555.00;5148441;27;40727;-75
2021/10/25 09:03:26;;;;;;;5.77;3.67;;;;;;;10.19;61.11;99529.53;5164945;27;42802;-75
2021/10/25 09:06:04;;;;;;;6.00;4.43;;;;;;;10.31;59.63;99555.38;5142561;27;42094;-77
2021/10/25 09:08:35;;;;;;;5.57;3.77;;;;;;;9.98;60.17;99557.88;5145079;27;40223;-77
2021/10/25 09:11:03;;;;;;;7.47;4.60;;;;;;;9.62;60.67;99549.94;5149406;27;40702;-78
2021/10/25 09:13:31;;;;;;;7.83;5.33;;;;;;;9.46;61.50;99522.50;5156136;27;43572;-78
2021/10/25 09:16:03;;;;;;;5.60;3.97;;;;;;;9.57;61.29;99535.22;5128938;27;41065;-76
2021/10/25 09:18:49;;;;;;;5.90;4.10;;;;;;;9.55;61.50;99524.69;5134038;27;39902;-79
2021/10/25 09:21:22;;;;;;;3.97;3.30;;;;;;;9.52;61.70;99530.13;5127642;27;42533;-83
2021/10/25 09:23:51;;;;;;;6.27;4.07;;;;;;;9.50;61.37;99539.94;5133120;27;42754;-82
2021/10/25 09:26:23;;;;;;;7.10;3.87;;;;;;;9.60;61.50;99537.72;5150960;27;42281;-78
2021/10/25 09:28:56;;;;;;;5.03;4.03;;;;;;;9.84;61.59;99540.97;5134017;27;38908;-78
2021/10/25 09:31:31;;;;;;;4.20;3.33;;;;;;;10.02;61.28;99542.69;5133191;27;40968;-83
2021/10/25 09:34:05;;;;;;;5.07;3.67;;;;;;;10.10;61.67;99516.72;5133376;27;41826;-78
2021/10/25 09:36:59;;;;;;;9.27;3.90;;;;;;;10.39;61.30;99536.44;5149144;27;42027;-77
2021/10/25 09:39:41;;;;;;;4.77;4.27;;;;;;;10.70;60.73;99535.75;5134857;27;38956;-78
2021/10/25 09:45:25;;;;;;;4.77;3.93;;;;;;;12.47;56.63;99543.50;5146895;27;43436;-84
2021/10/25 09:50:58;;;;;;;5.17;3.57;;;;;;;13.80;54.20;99554.75;5124108;27;39194;-78
2021/10/25 09:53:34;;;;;;;4.93;3.87;;;;;;;14.36;53.48;99558.16;5132061;27;40684;-76
2021/10/25 09:56:06;;;;;;;4.80;3.40;;;;;;;15.83;50.38;99573.69;5137125;27;42817;-82
2021/10/25 09:58:55;;;;;;;5.87;4.20;;;;;;;18.05;45.38;99585.91;5113004;27;42410;-77
2021/10/25 10:01:27;;;;;;;4.30;3.90;;;;;;;19.85;41.74;99610.84;5129470;27;39696;-76
2021/10/25 10:03:55;;;;;;;4.90;4.40;;;;;;;20.49;39.95;99623.91;5129740;27;41810;-77
2021/10/25 10:06:35;;;;;;;6.07;4.80;;;;;;;20.67;38.85;99604.22;5144850;27;42973;-76
2021/10/25 10:09:05;;;;;;;4.70;3.97;;;;;;;21.14;38.27;99601.63;5134128;27;43199;-79
2021/10/25 10:11:34;;;;;;;4.03;3.40;;;;;;;21.27;37.74;99598.63;5130365;27;40928;-80
2021/10/25 10:14:04;;;;;;;5.07;3.93;;;;;;;20.77;37.71;99601.53;5114215;27;42235;-78
2021/10/25 10:16:43;;;;;;;4.07;3.70;;;;;;;21.01;37.78;99588.47;5128762;27;41779;-80
2021/10/25 10:19:14;;;;;;;5.17;3.80;;;;;;;22.22;36.25;99591.16;5131489;27;41569;-79
2021/10/25 10:22:02;;;;;;;6.20;4.47;;;;;;;24.53;32.73;99618.44;5146492;27;40041;-77
2021/10/25 10:24:40;;;;;;;6.40;3.97;;;;;;;26.40;30.98;99623.59;5128814;27;41882;-79
2021/10/25 10:27:13;;;;;;;4.27;3.70;;;;;;;27.59;28.54;99612.16;5140591;27;42806;-78
2021/10/25 10:29:43;;;;;;;4.67;3.83;;;;;;;27.90;27.88;99640.06;5128473;27;42175;-75
2021/10/25 10:32:29;;;;;;;5.17;4.00;;;;;;;28.39;27.17;99634.00;5142323;27;40442;-75
2021/10/25 10:35:17;;;;;;;4.50;4.10;;;;;;;29.27;26.18;99628.22;5151171;27;41806;-75
2021/10/25 10:38:02;;;;;;;4.73;4.33;;;;;;;30.15;25.17;99630.34;5145412;27;44104;-77
2021/10/25 10:40:41;;;;;;;4.37;3.97;;;;;;;30.84;24.47;99638.38;5128576;27;42471;-75
2021/10/25 10:43:31;;;;;;;4.40;4.00;;;;;;;31.57;22.85;99639.28;5108953;27;40431;-77
2021/10/25 10:46:10;;;;;;;4.40;3.93;;;;;;;31.98;22.93;99635.44;5144495;27;41494;-77
2021/10/25 10:48:39;;;;;;;9.57;4.20;;;;;;;33.26;22.22;99633.59;5149120;27;42914;-75
2021/10/25 10:51:11;;;;;;;4.68;4.28;;;;;;;33.64;21.06;99633.41;5145244;27;41913;-78
2021/10/25 10:53:49;;;;;;;5.35;4.10;;;;;;;33.37;21.37;99591.66;5150467;27;39791;-76
2021/10/25 10:56:27;;;;;;;4.13;3.83;;;;;;;33.35;21.63;99616.59;5143410;27;40648;-76
2021/10/25 10:59:07;;;;;;;4.80;4.40;;;;;;;33.87;20.22;99628.16;5150211;27;42871;-82
2021/10/25 11:01:37;;;;;;;4.43;3.92;;;;;;;34.36;20.67;99612.59;5150360;27;41416;-78
2021/10/25 11:04:07;;;;;;;4.40;4.00;;;;;;;34.62;20.76;99608.66;5149928;27;41203;-77
2021/10/25 11:06:37;;;;;;;4.53;4.13;;;;;;;33.46;21.97;99593.03;5126336;27;41038;-82
2021/10/25 11:09:09;;;;;;;4.70;4.30;;;;;;;32.48;22.57;99601.75;5149330;27;42513;-81
2021/10/25 11:11:41;;;;;;;4.40;4.00;;;;;;;32.88;21.16;99615.25;5125059;27;41199;-86
2021/10/25 11:14:14;;;;;;;4.80;4.40;;;;;;;33.98;20.14;99612.81;5149378;27;39851;-80
2021/10/25 11:16:43;;;;;;;4.40;3.67;;;;;;;35.13;19.29;99617.19;5116347;27;40888;-84
2021/10/25 11:19:12;;;;;;;4.97;4.55;;;;;;;36.24;17.95;99607.13;5130206;27;42776;-81
2021/10/25 11:21:45;;;;;;;5.20;3.88;;;;;;;36.64;18.12;99607.13;5142191;27;43156;-81
2021/10/25 11:24:16;;;;;;;4.45;4.05;;;;;;;37.21;17.66;99610.69;5149121;27;39390;-83
2021/10/25 11:26:48;;;;;;;4.47;4.07;;;;;;;37.64;17.37;99600.88;5131683;27;41074;-78
2021/10/25 11:29:18;;;;;;;5.50;4.53;;;;;;;37.80;17.48;99588.97;5131173;27;42089;-76
2021/10/25 11:31:48;;;;;;;4.47;4.07;;;;;;;37.80;17.10;99594.50;5147647;27;42196;-81
2021/10/25 11:34:21;;;;;;;4.63;4.22;;;;;;;37.67;17.34;99586.56;5147640;27;39856;-75
2021/10/25 11:36:59;;;;;;;4.38;3.97;;;;;;;37.87;17.47;99581.31;5126399;27;41808;-76
2021/10/25 11:39:29;;;;;;;4.40;4.10;;;;;;;38.49;16.39;99592.06;5132163;27;41618;-79
2021/10/25 11:41:59;;;;;;;3.45;3.15;;;;;;;39.22;16.00;99576.72;5146304;27;41068;-79
2021/10/25 11:44:27;;;;;;;4.10;3.80;;;;;;;39.80;15.73;99578.56;5148460;27;41504;-79
2021/10/25 11:46:56;;;;;;;3.58;3.28;;;;;;;39.46;15.82;99563.34;5143354;27;42286;-82
2021/10/25 11:49:25;;;;;;;3.85;3.55;;;;;;;38.61;15.71;99565.06;5130165;27;41918;-80
2021/10/25 11:51:55;;;;;;;4.03;3.72;;;;;;;37.51;16.54;99537.63;5142720;27;42392;-81
2021/10/25 11:54:23;;;;;;;4.30;3.90;;;;;;;38.07;16.79;99553.91;5141332;27;40341;-80
2021/10/25 11:56:53;;;;;;;3.72;3.42;;;;;;;37.69;17.11;99540.97;5127379;27;42847;-84
2021/10/25 11:59:23;;;;;;;3.92;3.63;;;;;;;36.07;17.91;99542.78;5137454;27;41765;-81
2021/10/25 12:01:52;;;;;;;4.53;4.13;;;;;;;35.75;18.01;99532.19;5129311;27;41160;-79
2021/10/25 12:04:22;;;;;;;6.18;4.22;;;;;;;36.60;17.99;99528.63;5128892;27;39055;-83
2021/10/25 12:06:58;;;;;;;4.22;3.83;;;;;;;36.68;17.88;99537.38;5144672;27;41735;-80
2021/10/25 12:09:33;;;;;;;4.07;3.77;;;;;;;36.24;18.34;99516.09;5148821;27;44530;-82
2021/10/25 12:12:05;;;;;;;4.22;3.85;;;;;;;37.73;16.96;99530.22;5131152;27;40665;-80
2021/10/25 12:14:38;;;;;;;3.78;3.47;;;;;;;38.69;16.44;99528.63;5146832;27;39810;-78
2021/10/25 12:17:09;;;;;;;3.42;3.13;;;;;;;39.50;15.32;99534.84;5147759;27;41846;-77
2021/10/25 12:19:37;;;;;;;7.35;6.32;;;;;;;40.12;15.16;99524.88;5147870;27;43140;-78
2021/10/25 12:22:10;;;;;;;3.95;3.50;;;;;;;40.75;15.07;99534.78;5148397;27;42964;-79
2021/10/25 12:24:43;;;;;;;4.05;3.75;;;;;;;41.26;14.77;99532.00;5143393;27;39119;-78
2021/10/25 12:27:17;;;;;;;3.80;3.08;;;;;;;41.57;14.36;99530.84;5140088;27;40932;-83
2021/10/25 12:29:47;;;;;;;3.22;3.03;;;;;;;41.75;14.62;99526.63;5128720;27;42461;-81
2021/10/25 12:32:14;;;;;;;3.55;3.20;;;;;;;41.83;14.40;99527.97;5142068;27;41520;-80
2021/10/25 12:34:50;;;;;;;3.38;3.05;;;;;;;41.43;15.00;99510.28;5148556;27;39926;-80
2021/10/25 12:37:19;;;;;;;3.42;3.13;;;;;;;41.56;14.05;99514.44;5148801;27;42340;-77
2021/10/25 12:39:47;;;;;;;3.75;3.45;;;;;;;41.47;13.84;99519.72;5145392;27;42875;-79
2021/10/25 12:42:15;;;;;;;3.67;3.20;;;;;;;41.18;14.22;99513.09;5128895;27;40985;-81
2021/10/25 12:44:51;;;;;;;3.22;2.92;;;;;;;39.05;15.12;99506.78;5145116;27;39879;-77
2021/10/25 12:47:20;;;;;;;3.38;3.17;;;;;;;38.87;15.88;99501.63;5146359;27;42219;-82
2021/10/25 12:49:50;;;;;;;3.63;3.33;;;;;;;39.41;15.56;99494.88;5149166;27;43180;-80
2021/10/25 12:52:18;;;;;;;3.63;3.33;;;;;;;39.72;15.66;99484.75;5132852;27;41520;-78
2021/10/25 12:54:47;;;;;;;2.88;2.55;;;;;;;40.02;15.77;99474.91;5151934;27;39281;-83
2021/10/25 12:57:19;;;;;;;3.13;2.92;;;;;;;40.13;15.56;99471.88;5133373;27;41253;-82
2021/10/25 12:59:59;;;;;;;3.38;3.08;;;;;;;39.70;15.60;99447.28;5149021;27;43542;-79
2021/10/25 13:02:29;;;;;;;3.70;3.40;;;;;;;38.33;15.78;99465.69;5132035;27;40702;-77
2021/10/25 13:05:08;;;;;;;3.97;3.67;;;;;;;36.25;17.45;99446.06;5157159;27;40891;-77
2021/10/25 13:07:36;;;;;;;4.43;3.13;;;;;;;34.34;18.49;99423.03;5167259;27;43217;-79
2021/10/25 13:10:10;;;;;;;3.23;2.87;;;;;;;32.86;19.99;99440.91;5165194;27;43243;-78
2021/10/25 13:12:37;;;;;;;2.87;2.60;;;;;;;31.41;20.96;99418.78;5165886;27;42288;-81
2021/10/25 13:15:08;;;;;;;4.30;2.57;;;;;;;30.26;22.44;99405.66;5149009;27;38905;-79
2021/10/25 13:17:37;;;;;;;3.40;3.10;;;;;;;29.27;23.53;99401.75;5168674;27;41884;-83
2021/10/25 13:20:07;;;;;;;4.17;2.70;;;;;;;28.51;24.61;99392.66;5146692;27;42946;-78
2021/10/25 13:22:34;;;;;;;3.00;2.53;;;;;;;28.08;25.48;99391.81;5131659;27;41306;-78
2021/10/25 13:25:02;;;;;;;3.03;2.73;;;;;;;28.02;25.72;99385.28;5152345;27;40170;-78
2021/10/25 13:27:30;;;;;;;2.73;2.23;;;;;;;28.56;25.37;99373.84;5150167;27;40791;-78
2021/10/25 13:29:57;;;;;;;4.00;2.63;;;;;;;29.46;24.89;99378.34;5126660;27;42079;-79
2021/10/25 13:32:26;;;;;;;3.37;2.87;;;;;;;30.45;23.86;99387.56;5131291;27;40806;-80
2021/10/25 13:34:54;;;;;;;2.30;2.10;;;;;;;31.18;22.68;99388.34;5149772;27;40109;-78
2021/10/25 13:37:22;;;;;;;3.93;2.20;;;;;;;31.80;22.42;99391.47;5150633;27;42006;-79
2021/10/25 13:39:49;;;;;;;2.30;2.10;;;;;;;32.20;21.39;99401.13;5150937;27;42567;-78
2021/10/25 13:42:17;;;;;;;2.30;2.03;;;;;;;32.53;21.43;99397.28;5150950;27;43073;-80
2021/10/25 13:44:45;;;;;;;2.80;2.50;;;;;;;32.61;21.09;99377.81;5133797;27;40601;-79
2021/10/25 13:47:12;;;;;;;2.47;2.27;;;;;;;32.91;20.95;99387.00;5148765;27;42643;-77
2021/10/25 13:49:42;;;;;;;2.30;2.10;;;;;;;33.08;21.21;99390.00;5113029;27;44797;-79
2021/10/25 13:52:10;;;;;;;2.50;2.03;;;;;;;33.22;21.29;99390.69;5131523;27;41261;-80
2021/10/25 13:54:38;;;;;;;2.53;2.30;;;;;;;33.23;21.09;99375.91;5149466;27;40945;-80
2021/10/25 13:57:08;;;;;;;3.20;2.43;;;;;;;33.31;20.92;99386.59;5147236;27;41961;-78
2021/10/25 13:59:37;;;;;;;2.40;2.13;;;;;;;33.26;21.12;99386.47;5149229;27;41918;-78
2021/10/25 14:02:09;;;;;;;2.03;1.83;;;;;;;33.28;21.65;99376.91;5130207;27;41231;-78
2021/10/25 14:04:40;;;;;;;4.17;2.73;;;;;;;33.07;21.11;99372.69;5131187;27;39633;-80
2021/10/25 14:07:14;;;;;;;2.00;1.90;;;;;;;32.97;21.24;99377.88;5124144;27;40478;-82
2021/10/25 14:09:44;;;;;;;3.33;2.00;;;;;;;32.70;20.94;99362.72;5130672;27;43070;-82
2021/10/25 14:12:18;;;;;;;2.33;2.13;;;;;;;32.05;21.23;99332.06;5140741;27;41880;-79
2021/10/25 14:14:46;;;;;;;2.23;2.03;;;;;;;30.98;22.06;99350.09;5132567;27;39745;-82
2021/10/25 14:17:14;;;;;;;2.47;2.10;;;;;;;29.73;23.62;99365.63;5146486;27;41063;-78
2021/10/25 14:19:42;;;;;;;3.67;2.50;;;;;;;28.54;24.80;99352.22;5149447;27;43774;-81
2021/10/25 14:22:11;;;;;;;3.47;2.07;;;;;;;27.56;26.32;99340.41;5146646;27;41289;-78
2021/10/25 14:24:39;;;;;;;2.53;2.17;;;;;;;26.61;27.39;99333.06;5150239;27;39957;-77
2021/10/25 14:27:07;;;;;;;1.63;1.53;;;;;;;25.86;28.29;99322.22;5129227;27;40758;-81
2021/10/25 14:29:35;;;;;;;1.97;1.83;;;;;;;25.18;29.94;99311.31;5150418;27;41920;-82
2021/10/25 14:32:03;;;;;;;2.10;1.80;;;;;;;24.55;30.55;99304.09;5146955;27;42256;-77
2021/10/25 14:34:31;;;;;;;3.97;2.10;;;;;;;23.87;31.04;99286.44;5147305;27;39919;-77
2021/10/25 14:37:05;;;;;;;2.73;2.40;;;;;;;23.46;31.66;99290.13;5146061;27;42460;-78
2021/10/25 14:39:39;;;;;;;2.30;1.83;;;;;;;23.14;32.40;99290.88;5145463;27;42605;-77
2021/10/25 14:42:14;;;;;;;2.10;1.90;;;;;;;22.88;33.00;99286.44;5128070;27;42244;-78
2021/10/25 14:44:48;;;;;;;3.93;2.53;;;;;;;22.48;33.16;99289.78;5148220;27;40692;-77
2021/10/25 14:47:25;;;;;;;2.87;2.57;;;;;;;22.07;34.07;99263.56;5131628;27;41772;-77
2021/10/25 14:55:31;;;;;;;2.83;1.97;;;;;;;21.10;35.56;99260.84;5142837;27;41644;-79
2021/10/25 14:57:58;;;;;;;2.10;1.80;;;;;;;20.83;36.26;99250.97;5146221;27;42483;-79
2021/10/25 15:00:26;;;;;;;2.13;1.93;;;;;;;20.55;36.63;99250.13;5126717;27;41508;-78
2021/10/25 15:02:55;;;;;;;2.20;2.00;;;;;;;20.28;37.39;99245.53;5129906;27;40855;-79
2021/10/25 15:05:23;;;;;;;2.63;1.93;;;;;;;20.02;37.47;99247.19;5125040;27;39235;-81
2021/10/25 15:07:50;;;;;;;1.57;1.47;;;;;;;19.70;37.80;99224.22;5128961;27;41629;-78
2021/10/25 15:10:19;;;;;;;1.93;1.70;;;;;;;19.62;38.08;99237.53;5129123;27;43032;-83
2021/10/25 15:12:48;;;;;;;3.50;1.90;;;;;;;19.43;39.87;99223.22;5131683;27;42144;-81
2021/10/25 15:15:16;;;;;;;3.00;2.50;;;;;;;19.24;39.36;99232.16;5145097;27;40282;-82
2021/10/25 15:17:44;;;;;;;2.87;2.27;;;;;;;19.08;39.80;99227.31;5146032;27;41505;-78
2021/10/25 15:20:12;;;;;;;3.07;2.10;;;;;;;18.91;40.14;99225.34;5116254;27;41922;-80
2021/10/25 15:22:40;;;;;;;3.13;2.27;;;;;;;18.63;40.38;99210.91;5129680;27;43907;-79
2021/10/25 15:25:09;;;;;;;2.43;2.23;;;;;;;18.37;40.75;99198.94;5144091;27;40170;-78
2021/10/25 15:27:39;;;;;;;3.90;2.60;;;;;;;18.22;41.61;99196.63;5144432;27;42422;-82
2021/10/25 15:30:10;;;;;;;2.53;2.17;;;;;;;17.99;41.56;99189.75;5121245;27;43221;-81
2021/10/25 15:32:38;;;;;;;2.90;2.07;;;;;;;17.89;41.96;99205.81;5129821;27;42397;-81